createdAt,value
2018-07-22T00:00:55.967Z,19.42
2018-07-22T00:01:56.147Z,19.47
2018-07-22T00:02:56.333Z,19.42
2018-07-22T00:03:56.522Z,19.47
2018-07-22T00:04:56.709Z,19.41
2018-07-22T00:05:56.895Z,19.47
2018-07-22T00:06:57.086Z,19.53
2018-07-22T00:07:57.273Z,19.45
2018-07-22T00:08:57.466Z,19.39
2018-07-22T00:09:57.647Z,19.45
2018-07-22T00:10:57.830Z,19.47
2018-07-22T00:11:58.016Z,19.50
2018-07-22T00:12:58.202Z,19.38
2018-07-22T00:13:58.404Z,19.45
2018-07-22T00:14:58.573Z,19.38
2018-07-22T00:15:58.755Z,19.45
2018-07-22T00:16:58.942Z,19.45
2018-07-22T00:17:59.132Z,19.34
2018-07-22T00:18:59.320Z,19.42
2018-07-22T00:19:59.496Z,19.41
2018-07-22T00:20:59.692Z,19.35
2018-07-22T00:21:59.885Z,19.34
2018-07-22T00:23:00.074Z,19.31
2018-07-22T00:24:00.260Z,19.34
2018-07-22T00:25:00.451Z,19.26
2018-07-22T00:26:00.637Z,19.39
2018-07-22T00:27:00.823Z,19.37
2018-07-22T00:28:01.022Z,19.32
2018-07-22T00:29:01.206Z,19.30
2018-07-22T00:30:01.380Z,19.35
2018-07-22T00:31:01.579Z,19.24
2018-07-22T00:32:01.767Z,19.20
2018-07-22T00:33:01.947Z,19.23
2018-07-22T00:34:02.146Z,19.24
2018-07-22T00:35:02.336Z,19.12
2018-07-22T00:36:02.520Z,19.08
2018-07-22T00:37:02.705Z,19.22
2018-07-22T00:38:02.893Z,19.22
2018-07-22T00:39:03.078Z,19.23
2018-07-22T00:40:03.269Z,19.16
2018-07-22T00:41:03.453Z,19.13
2018-07-22T00:42:03.632Z,19.08
2018-07-22T00:43:03.816Z,19.08
2018-07-22T00:44:04.006Z,19.04
2018-07-22T00:45:04.200Z,19.08
2018-07-22T00:46:04.373Z,19.17
2018-07-22T00:47:04.578Z,19.19
2018-07-22T00:48:04.762Z,19.16
2018-07-22T00:49:04.959Z,19.16
2018-07-22T00:50:05.137Z,19.04
2018-07-22T00:51:05.307Z,19.19
2018-07-22T00:52:05.502Z,19.15
2018-07-22T00:53:05.671Z,19.13
2018-07-22T00:54:05.883Z,19.01
2018-07-22T00:55:06.055Z,19.04
2018-07-22T00:56:06.232Z,19.07
2018-07-22T00:58:49.130Z,19.07
2018-07-22T00:59:49.340Z,19.15
2018-07-22T01:00:49.522Z,19.22
2018-07-22T01:01:49.713Z,19.01
2018-07-22T01:02:49.901Z,19.05
2018-07-22T01:03:50.086Z,19.12
2018-07-22T01:04:50.275Z,19.07
2018-07-22T01:05:50.466Z,18.94
2018-07-22T01:06:50.648Z,18.89
2018-07-22T01:07:50.844Z,18.89
2018-07-22T01:08:51.007Z,18.98
2018-07-22T01:09:51.202Z,18.97
2018-07-22T01:12:34.101Z,18.83
2018-07-22T01:13:34.290Z,18.89
2018-07-22T01:14:34.468Z,18.85
2018-07-22T01:15:34.654Z,18.82
2018-07-22T01:16:34.838Z,18.76
2018-07-22T01:17:35.024Z,18.74
2018-07-22T01:18:35.214Z,18.76
2018-07-22T01:19:35.390Z,18.75
2018-07-22T01:20:35.589Z,18.76
2018-07-22T01:21:35.773Z,18.79
2018-07-22T01:22:35.963Z,18.81
2018-07-22T01:23:36.141Z,18.91
2018-07-22T01:24:36.338Z,18.83
2018-07-22T01:25:36.517Z,18.96
2018-07-22T01:26:36.703Z,18.79
2018-07-22T01:27:36.892Z,18.93
2018-07-22T01:28:37.081Z,18.89
2018-07-22T01:29:37.278Z,18.96
2018-07-22T01:30:37.459Z,18.93
2018-07-22T01:31:37.648Z,18.91
2018-07-22T01:32:37.837Z,18.85
2018-07-22T01:33:38.024Z,18.81
2018-07-22T01:34:38.209Z,18.83
2018-07-22T01:35:38.398Z,18.82
2018-07-22T01:36:38.584Z,18.88
2018-07-22T01:37:38.784Z,18.91
2018-07-22T01:38:38.968Z,18.89
2018-07-22T01:39:39.166Z,18.89
2018-07-22T01:40:39.376Z,18.89
2018-07-22T01:41:39.543Z,18.75
2018-07-22T01:42:39.716Z,18.75
2018-07-22T01:43:39.914Z,18.70
2018-07-22T01:44:40.097Z,18.58
2018-07-22T01:45:40.295Z,18.63
2018-07-22T01:46:40.461Z,18.66
2018-07-22T01:47:40.637Z,18.63
2018-07-22T01:48:40.849Z,18.60
2018-07-22T01:49:41.020Z,18.66
2018-07-22T01:50:41.197Z,18.63
2018-07-22T01:51:41.379Z,18.60
2018-07-22T01:52:41.568Z,18.57
2018-07-22T01:53:41.758Z,18.56
2018-07-22T01:54:41.945Z,18.51
2018-07-22T01:55:42.148Z,18.57
2018-07-22T01:56:42.321Z,18.52
2018-07-22T01:57:42.537Z,18.48
2018-07-22T01:58:42.688Z,18.52
2018-07-22T01:59:42.879Z,18.48
2018-07-22T02:00:43.068Z,18.52
2018-07-22T02:01:43.331Z,18.56
2018-07-22T02:02:43.434Z,18.57
2018-07-22T02:03:43.622Z,18.54
2018-07-22T02:04:43.807Z,18.57
2018-07-22T02:05:43.995Z,18.56
2018-07-22T02:06:44.199Z,18.52
2018-07-22T02:07:44.358Z,18.39
2018-07-22T02:08:44.533Z,18.49
2018-07-22T02:09:44.735Z,18.48
2018-07-22T02:10:44.934Z,18.43
2018-07-22T02:11:45.111Z,18.52
2018-07-22T02:12:45.288Z,18.43
2018-07-22T02:13:45.468Z,18.51
2018-07-22T02:14:45.653Z,18.52
2018-07-22T02:15:45.850Z,18.49
2018-07-22T02:16:46.023Z,18.49
2018-07-22T02:17:46.209Z,18.60
2018-07-22T02:18:46.391Z,18.54
2018-07-22T02:19:46.579Z,18.43
2018-07-22T02:20:46.769Z,18.46
2018-07-22T02:21:46.957Z,18.48
2018-07-22T02:22:47.140Z,18.48
2018-07-22T02:23:47.327Z,18.48
2018-07-22T02:24:47.510Z,18.45
2018-07-22T02:25:47.713Z,18.45
2018-07-22T02:26:47.873Z,18.39
2018-07-22T02:27:48.072Z,18.49
2018-07-22T02:28:48.257Z,18.52
2018-07-22T02:29:48.444Z,18.52
2018-07-22T02:30:48.626Z,18.51
2018-07-22T02:31:48.811Z,18.60
2018-07-22T02:32:48.981Z,18.51
2018-07-22T02:33:49.176Z,18.46
2018-07-22T02:34:49.361Z,18.42
2018-07-22T02:35:49.541Z,18.51
2018-07-22T02:36:49.731Z,18.54
2018-07-22T02:37:49.924Z,18.52
2018-07-22T02:38:50.117Z,18.56
2018-07-22T02:39:50.287Z,18.58
2018-07-22T02:40:50.473Z,18.51
2018-07-22T02:41:50.654Z,18.46
2018-07-22T02:42:50.843Z,18.52
2018-07-22T02:43:51.023Z,18.56
2018-07-22T02:44:51.206Z,18.46
2018-07-22T02:45:51.390Z,18.57
2018-07-22T02:46:51.565Z,18.52
2018-07-22T02:47:51.748Z,18.54
2018-07-22T02:48:51.947Z,18.56
2018-07-22T02:49:52.118Z,18.61
2018-07-22T02:50:52.304Z,18.60
2018-07-22T02:51:52.491Z,18.64
2018-07-22T02:52:52.666Z,18.66
2018-07-22T02:53:52.849Z,18.56
2018-07-22T02:54:53.031Z,18.61
2018-07-22T02:55:53.214Z,18.54
2018-07-22T02:56:53.401Z,18.46
2018-07-22T02:57:53.589Z,18.52
2018-07-22T02:58:53.773Z,18.49
2018-07-22T02:59:53.954Z,18.54
2018-07-22T03:00:54.162Z,18.49
2018-07-22T03:01:54.313Z,18.56
2018-07-22T03:02:54.509Z,18.60
2018-07-22T03:03:54.683Z,18.61
2018-07-22T03:04:54.893Z,18.56
2018-07-22T03:05:55.076Z,18.57
2018-07-22T03:06:55.260Z,18.61
2018-07-22T03:07:55.445Z,18.56
2018-07-22T03:08:55.627Z,18.58
2018-07-22T03:09:55.815Z,18.58
2018-07-22T03:10:55.997Z,18.51
2018-07-22T03:11:56.186Z,18.61
2018-07-22T03:12:56.363Z,18.58
2018-07-22T03:13:56.544Z,18.54
2018-07-22T03:14:56.762Z,18.48
2018-07-22T03:15:56.902Z,18.56
2018-07-22T03:16:57.111Z,18.56
2018-07-22T03:17:57.297Z,18.46
2018-07-22T03:18:57.484Z,18.54
2018-07-22T03:19:57.659Z,18.57
2018-07-22T03:20:57.860Z,18.54
2018-07-22T03:21:58.039Z,18.57
2018-07-22T03:22:58.244Z,18.49
2018-07-22T03:23:58.432Z,18.49
2018-07-22T03:24:58.615Z,18.52
2018-07-22T03:25:58.798Z,18.46
2018-07-22T03:26:58.984Z,18.57
2018-07-22T03:27:59.188Z,18.51
2018-07-22T03:28:59.374Z,18.56
2018-07-22T03:29:59.559Z,18.51
2018-07-22T03:30:59.752Z,18.58
2018-07-22T03:31:59.940Z,18.49
2018-07-22T03:33:00.154Z,18.46
2018-07-22T03:34:00.307Z,18.56
2018-07-22T03:35:00.504Z,18.46
2018-07-22T03:36:00.679Z,18.54
2018-07-22T03:37:00.855Z,18.56
2018-07-22T03:38:01.032Z,18.46
2018-07-22T03:39:01.207Z,18.49
2018-07-22T03:40:01.394Z,18.48
2018-07-22T03:41:01.576Z,18.41
2018-07-22T03:42:01.761Z,18.51
2018-07-22T03:43:01.953Z,18.45
2018-07-22T03:44:02.135Z,18.49
2018-07-22T03:45:02.339Z,18.56
2018-07-22T03:46:02.535Z,18.57
2018-07-22T03:47:02.699Z,18.52
2018-07-22T03:48:02.887Z,18.60
2018-07-22T03:49:03.058Z,18.57
2018-07-22T03:50:03.227Z,18.58
2018-07-22T03:51:03.417Z,18.58
2018-07-22T03:52:03.601Z,18.57
2018-07-22T03:53:03.776Z,18.64
2018-07-22T03:54:03.977Z,18.60
2018-07-22T03:55:04.149Z,18.58
2018-07-22T03:56:04.341Z,18.63
2018-07-22T03:57:04.529Z,18.60
2018-07-22T03:58:04.710Z,18.66
2018-07-22T03:59:04.918Z,18.56
2018-07-22T04:00:05.097Z,18.49
2018-07-22T04:01:05.288Z,18.42
2018-07-22T04:02:05.468Z,18.46
2018-07-22T04:03:05.658Z,18.43
2018-07-22T04:04:05.840Z,18.42
2018-07-22T04:05:06.017Z,18.41
2018-07-22T04:06:06.213Z,18.30
2018-07-22T04:07:06.472Z,18.33
2018-07-22T04:08:06.601Z,18.30
2018-07-22T04:09:06.774Z,18.34
2018-07-22T04:10:07.018Z,18.34
2018-07-22T04:11:07.199Z,18.34
2018-07-22T04:12:07.376Z,18.30
2018-07-22T04:13:07.561Z,18.21
2018-07-22T04:14:07.739Z,18.36
2018-07-22T04:15:07.941Z,18.23
2018-07-22T04:16:08.145Z,18.43
2018-07-22T04:17:08.332Z,18.33
2018-07-22T04:18:08.524Z,18.33
2018-07-22T04:19:08.708Z,18.46
2018-07-22T04:20:08.894Z,18.42
2018-07-22T04:21:09.084Z,18.43
2018-07-22T04:22:09.274Z,18.46
2018-07-22T04:23:09.453Z,18.39
2018-07-22T04:24:09.652Z,18.39
2018-07-22T04:25:09.836Z,18.39
2018-07-22T04:26:10.047Z,18.46
2018-07-22T04:27:10.234Z,18.36
2018-07-22T04:28:10.418Z,18.36
2018-07-22T04:29:10.623Z,18.38
2018-07-22T04:30:10.824Z,18.30
2018-07-22T04:31:11.010Z,18.43
2018-07-22T04:32:11.182Z,18.38
2018-07-22T04:33:11.374Z,18.36
2018-07-22T04:34:11.547Z,18.34
2018-07-22T04:35:11.761Z,18.39
2018-07-22T04:36:11.937Z,18.39
2018-07-22T04:37:12.122Z,18.46
2018-07-22T04:38:12.303Z,18.46
2018-07-22T04:39:12.489Z,18.45
2018-07-22T04:40:12.678Z,18.43
2018-07-22T04:41:12.877Z,18.42
2018-07-22T04:42:13.054Z,18.36
2018-07-22T04:43:13.240Z,18.48
2018-07-22T04:44:13.428Z,18.48
2018-07-22T04:45:13.604Z,18.48
2018-07-22T04:46:13.790Z,18.51
2018-07-22T04:47:13.980Z,18.49
2018-07-22T04:48:14.170Z,18.57
2018-07-22T04:49:14.341Z,18.52
2018-07-22T04:50:14.549Z,18.61
2018-07-22T04:51:14.733Z,18.57
2018-07-22T04:52:14.921Z,18.56
2018-07-22T04:53:15.108Z,18.56
2018-07-22T04:54:15.314Z,18.57
2018-07-22T04:55:15.464Z,18.58
2018-07-22T04:56:15.650Z,18.49
2018-07-22T04:57:15.831Z,18.57
2018-07-22T04:58:16.033Z,18.56
2018-07-22T04:59:16.219Z,18.61
2018-07-22T05:02:21.098Z,18.52
2018-07-22T05:02:59.254Z,18.56
2018-07-22T05:05:42.140Z,18.54
2018-07-22T05:06:42.315Z,18.42
2018-07-22T05:07:42.504Z,18.48
2018-07-22T05:08:42.689Z,18.49
2018-07-22T05:09:42.870Z,18.52
2018-07-22T05:10:43.051Z,18.56
2018-07-22T05:11:43.240Z,18.56
2018-07-22T05:12:43.406Z,18.54
2018-07-22T05:13:43.590Z,18.57
2018-07-22T05:14:43.787Z,18.51
2018-07-22T05:15:43.981Z,18.51
2018-07-22T05:16:44.161Z,18.58
2018-07-22T05:17:44.344Z,18.60
2018-07-22T05:18:44.519Z,18.56
2018-07-22T05:19:44.723Z,18.56
2018-07-22T05:20:44.912Z,18.63
2018-07-22T05:21:45.116Z,18.56
2018-07-22T05:22:45.293Z,18.60
2018-07-22T05:23:45.474Z,18.60
2018-07-22T05:24:45.657Z,18.56
2018-07-22T05:25:45.844Z,18.56
2018-07-22T05:26:46.010Z,18.56
2018-07-22T05:27:46.227Z,18.56
2018-07-22T05:28:46.415Z,18.48
2018-07-22T05:29:46.610Z,18.51
2018-07-22T05:30:46.772Z,18.39
2018-07-22T05:31:46.953Z,18.39
2018-07-22T05:32:47.128Z,18.43
2018-07-22T05:33:47.310Z,18.51
2018-07-22T05:34:47.509Z,18.49
2018-07-22T05:35:47.719Z,18.45
2018-07-22T05:36:47.881Z,18.42
2018-07-22T05:37:48.071Z,18.39
2018-07-22T05:38:48.253Z,18.46
2018-07-22T05:39:48.474Z,18.49
2018-07-22T05:40:48.631Z,18.46
2018-07-22T05:41:48.817Z,18.34
2018-07-22T05:42:48.984Z,18.34
2018-07-22T05:43:49.170Z,18.42
2018-07-22T05:44:49.366Z,18.33
2018-07-22T05:45:49.550Z,18.34
2018-07-22T05:46:49.738Z,18.21
2018-07-22T05:47:49.922Z,18.28
2018-07-22T05:48:50.099Z,18.36
2018-07-22T05:49:50.287Z,18.28
2018-07-22T05:50:50.473Z,18.24
2018-07-22T05:51:50.663Z,18.34
2018-07-22T05:52:50.845Z,18.24
2018-07-22T05:53:51.079Z,18.18
2018-07-22T05:54:51.215Z,18.21
2018-07-22T05:55:51.427Z,18.27
2018-07-22T05:56:51.628Z,18.24
2018-07-22T05:57:51.798Z,18.31
2018-07-22T05:58:51.999Z,18.23
2018-07-22T05:59:52.184Z,18.31
2018-07-22T06:00:52.365Z,18.36
2018-07-22T06:01:52.558Z,18.31
2018-07-22T06:02:52.734Z,18.33
2018-07-22T06:03:52.931Z,18.42
2018-07-22T06:04:53.125Z,18.42
2018-07-22T06:05:53.328Z,18.41
2018-07-22T06:06:53.515Z,18.48
2018-07-22T06:07:53.693Z,18.51
2018-07-22T06:08:53.877Z,18.54
2018-07-22T06:09:54.060Z,18.48
2018-07-22T06:10:54.249Z,18.52
2018-07-22T06:11:54.471Z,18.63
2018-07-22T06:12:54.610Z,18.66
2018-07-22T06:13:54.800Z,18.61
2018-07-22T06:14:54.972Z,18.61
2018-07-22T06:15:55.170Z,18.58
2018-07-22T06:16:55.347Z,18.63
2018-07-22T06:17:55.531Z,18.61
2018-07-22T06:18:55.716Z,18.61
2018-07-22T06:19:55.912Z,18.60
2018-07-22T06:20:56.100Z,18.54
2018-07-22T06:21:56.290Z,18.56
2018-07-22T06:22:56.479Z,18.64
2018-07-22T06:23:56.672Z,18.56
2018-07-22T06:24:56.874Z,18.60
2018-07-22T06:25:57.035Z,18.52
2018-07-22T06:26:57.209Z,18.51
2018-07-22T06:27:57.420Z,18.48
2018-07-22T06:28:57.603Z,18.48
2018-07-22T06:29:57.783Z,18.42
2018-07-22T06:30:57.971Z,18.49
2018-07-22T06:31:58.154Z,18.56
2018-07-22T06:32:58.335Z,18.71
2018-07-22T06:33:58.527Z,18.61
2018-07-22T06:34:58.713Z,18.74
2018-07-22T06:35:58.905Z,18.71
2018-07-22T06:36:59.083Z,18.78
2018-07-22T06:37:59.274Z,18.78
2018-07-22T06:38:59.448Z,18.70
2018-07-22T06:39:59.636Z,18.81
2018-07-22T06:40:59.869Z,18.75
2018-07-22T06:42:00.018Z,18.76
2018-07-22T06:43:00.206Z,18.81
2018-07-22T06:44:00.378Z,18.82
2018-07-22T06:45:00.553Z,18.79
2018-07-22T06:46:00.793Z,18.86
2018-07-22T06:47:00.919Z,18.89
2018-07-22T06:48:01.107Z,18.94
2018-07-22T06:49:01.275Z,18.79
2018-07-22T06:50:01.482Z,18.81
2018-07-22T06:51:01.656Z,18.91
2018-07-22T06:52:01.827Z,18.85
2018-07-22T06:53:02.014Z,18.81
2018-07-22T06:54:02.200Z,18.94
2018-07-22T06:55:02.385Z,18.86
2018-07-22T06:56:02.582Z,18.74
2018-07-22T06:57:02.749Z,18.75
2018-07-22T06:58:02.927Z,18.60
2018-07-22T06:59:03.107Z,18.60
2018-07-22T07:00:03.312Z,18.71
2018-07-22T07:01:03.540Z,18.91
2018-07-22T07:02:03.680Z,18.82
2018-07-22T07:03:03.865Z,18.85
2018-07-22T07:04:04.064Z,18.98
2018-07-22T07:05:04.295Z,18.97
2018-07-22T07:06:04.412Z,19.01
2018-07-22T07:07:04.598Z,19.01
2018-07-22T07:08:04.781Z,19.12
2018-07-22T07:09:04.959Z,19.07
2018-07-22T07:10:05.145Z,19.20
2018-07-22T07:11:05.355Z,19.15
2018-07-22T07:12:05.506Z,19.23
2018-07-22T07:13:05.691Z,19.12
2018-07-22T07:14:05.867Z,19.07
2018-07-22T07:15:06.048Z,19.04
2018-07-22T07:16:06.234Z,19.05
2018-07-22T07:17:06.415Z,18.97
2018-07-22T07:18:06.590Z,19.04
2018-07-22T07:19:06.768Z,19.15
2018-07-22T07:20:06.946Z,19.09
2018-07-22T07:21:07.124Z,19.13
2018-07-22T07:22:07.304Z,19.15
2018-07-22T07:23:07.494Z,18.94
2018-07-22T07:24:07.677Z,19.09
2018-07-22T07:25:07.874Z,19.15
2018-07-22T07:26:08.051Z,19.15
2018-07-22T07:27:08.244Z,19.15
2018-07-22T07:28:08.415Z,19.15
2018-07-22T07:29:08.603Z,19.17
2018-07-22T07:30:08.789Z,19.08
2018-07-22T07:31:08.974Z,19.08
2018-07-22T07:32:09.157Z,19.12
2018-07-22T07:33:09.349Z,19.26
2018-07-22T07:34:09.531Z,19.27
2018-07-22T07:35:09.699Z,19.32
2018-07-22T07:36:09.920Z,19.34
2018-07-22T07:37:10.094Z,19.41
2018-07-22T07:38:10.300Z,19.41
2018-07-22T07:39:10.495Z,19.30
2018-07-22T07:40:10.681Z,19.34
2018-07-22T07:41:10.866Z,19.31
2018-07-22T07:42:11.088Z,19.37
2018-07-22T07:43:11.245Z,19.41
2018-07-22T07:44:11.407Z,19.31
2018-07-22T07:45:11.608Z,19.26
2018-07-22T07:46:11.817Z,19.23
2018-07-22T07:47:11.994Z,19.22
2018-07-22T07:48:12.174Z,19.34
2018-07-22T07:49:12.372Z,19.34
2018-07-22T07:50:12.560Z,19.41
2018-07-22T07:51:12.736Z,19.34
2018-07-22T07:52:12.948Z,19.41
2018-07-22T07:53:13.125Z,19.39
2018-07-22T07:54:13.312Z,19.53
2018-07-22T07:55:13.496Z,19.62
2018-07-22T07:56:13.695Z,19.53
2018-07-22T07:57:13.875Z,19.53
2018-07-22T07:58:14.087Z,19.54
2018-07-22T07:59:14.269Z,19.70
2018-07-22T08:00:14.454Z,19.67
2018-07-22T08:01:14.638Z,19.56
2018-07-22T08:02:14.828Z,19.64
2018-07-22T08:03:15.000Z,19.68
2018-07-22T08:04:15.177Z,19.68
2018-07-22T08:05:15.352Z,19.71
2018-07-22T08:06:15.550Z,19.72
2018-07-22T08:07:15.744Z,19.71
2018-07-22T08:08:15.931Z,19.68
2018-07-22T08:09:16.114Z,19.71
2018-07-22T08:10:16.298Z,19.71
2018-07-22T08:11:16.499Z,19.77
2018-07-22T08:12:16.656Z,19.74
2018-07-22T08:13:16.845Z,19.81
2018-07-22T08:14:17.030Z,19.81
2018-07-22T08:15:17.201Z,19.81
2018-07-22T08:16:17.381Z,19.71
2018-07-22T08:17:17.565Z,19.84
2018-07-22T08:18:17.737Z,19.89
2018-07-22T08:19:17.924Z,19.96
2018-07-22T08:20:18.107Z,19.93
2018-07-22T08:21:18.290Z,19.94
2018-07-22T08:22:18.508Z,19.86
2018-07-22T08:23:18.686Z,19.87
2018-07-22T08:24:18.828Z,20.04
2018-07-22T08:25:19.034Z,20.14
2018-07-22T08:26:19.226Z,20.33
2018-07-22T08:27:19.407Z,20.52
2018-07-22T08:28:19.584Z,20.52
2018-07-22T08:29:19.771Z,20.60
2018-07-22T08:30:19.955Z,20.64
2018-07-22T08:31:20.140Z,20.61
2018-07-22T08:32:20.330Z,20.64
2018-07-22T08:33:20.509Z,20.68
2018-07-22T08:34:20.696Z,20.70
2018-07-22T08:35:20.904Z,20.65
2018-07-22T08:36:21.114Z,20.88
2018-07-22T08:37:21.294Z,20.90
2018-07-22T08:38:21.479Z,20.97
2018-07-22T08:39:21.658Z,20.90
2018-07-22T08:40:21.851Z,20.83
2018-07-22T08:41:22.099Z,20.89
2018-07-22T08:42:22.204Z,20.95
2018-07-22T08:43:22.393Z,20.89
2018-07-22T08:44:22.574Z,20.93
2018-07-22T08:45:22.783Z,20.82
2018-07-22T08:46:22.981Z,20.92
2018-07-22T08:47:23.143Z,20.88
2018-07-22T08:48:23.336Z,20.88
2018-07-22T08:49:23.529Z,20.88
2018-07-22T08:50:23.719Z,20.83
2018-07-22T08:51:23.897Z,20.93
2018-07-22T08:52:24.099Z,20.88
2018-07-22T08:53:24.303Z,20.89
2018-07-22T08:54:24.465Z,21.03
2018-07-22T08:55:24.654Z,20.90
2018-07-22T08:56:24.836Z,20.92
2018-07-22T08:57:25.022Z,20.97
2018-07-22T08:58:25.218Z,21.13
2018-07-22T08:59:25.422Z,21.18
2018-07-22T09:00:25.584Z,21.19
2018-07-22T09:01:25.760Z,21.11
2018-07-22T09:02:25.948Z,21.10
2018-07-22T09:03:26.135Z,21.20
2018-07-22T09:04:26.325Z,21.28
2018-07-22T09:05:26.536Z,21.22
2018-07-22T09:06:26.699Z,21.28
2018-07-22T09:07:26.883Z,21.19
2018-07-22T09:08:27.077Z,21.14
2018-07-22T09:09:27.268Z,21.28
2018-07-22T09:10:27.470Z,21.23
2018-07-22T09:11:27.625Z,21.22
2018-07-22T09:12:27.798Z,21.14
2018-07-22T09:13:28.013Z,21.20
2018-07-22T09:14:28.198Z,21.13
2018-07-22T09:15:28.387Z,21.16
2018-07-22T09:16:28.629Z,21.25
2018-07-22T09:17:28.823Z,21.41
2018-07-22T09:18:29.020Z,21.44
2018-07-22T09:19:29.198Z,21.56
2018-07-22T09:20:29.394Z,21.69
2018-07-22T09:21:29.588Z,21.63
2018-07-22T09:22:29.776Z,21.66
2018-07-22T09:23:29.985Z,21.77
2018-07-22T09:24:30.180Z,21.82
2018-07-22T09:25:30.365Z,21.90
2018-07-22T09:26:30.550Z,21.81
2018-07-22T09:27:30.770Z,21.65
2018-07-22T09:28:30.970Z,21.65
2018-07-22T09:29:31.145Z,21.66
2018-07-22T09:30:31.361Z,21.63
2018-07-22T09:31:31.573Z,21.48
2018-07-22T09:32:31.761Z,21.43
2018-07-22T09:33:31.947Z,21.38
2018-07-22T09:34:32.135Z,21.45
2018-07-22T09:35:32.314Z,21.44
2018-07-22T09:36:32.521Z,21.41
2018-07-22T09:37:32.692Z,21.65
2018-07-22T09:38:32.910Z,21.59
2018-07-22T09:39:33.106Z,21.55
2018-07-22T09:40:33.314Z,21.43
2018-07-22T09:41:33.471Z,21.38
2018-07-22T09:42:33.664Z,21.28
2018-07-22T09:43:33.851Z,21.26
2018-07-22T09:44:34.041Z,21.35
2018-07-22T09:45:34.223Z,21.35
2018-07-22T09:46:34.409Z,21.30
2018-07-22T09:47:34.592Z,21.38
2018-07-22T09:48:34.793Z,21.55
2018-07-22T09:49:34.981Z,21.55
2018-07-22T09:50:35.163Z,21.67
2018-07-22T09:51:35.369Z,21.80
2018-07-22T09:52:35.535Z,21.69
2018-07-22T09:53:35.778Z,21.81
2018-07-22T09:54:35.921Z,21.77
2018-07-22T09:55:36.094Z,21.81
2018-07-22T09:58:19.008Z,21.98
2018-07-22T09:59:19.219Z,21.98
2018-07-22T10:00:19.388Z,22.07
2018-07-22T10:01:19.578Z,22.21
2018-07-22T10:02:19.765Z,22.16
2018-07-22T10:03:19.955Z,22.06
2018-07-22T10:04:20.145Z,22.23
2018-07-22T10:05:20.335Z,22.28
2018-07-22T10:06:20.529Z,22.23
2018-07-22T10:07:20.719Z,22.33
2018-07-22T10:08:20.909Z,22.25
2018-07-22T10:09:21.097Z,22.25
2018-07-22T10:10:21.287Z,22.04
2018-07-22T10:11:21.477Z,21.80
2018-07-22T10:12:21.664Z,21.80
2018-07-22T10:13:21.855Z,21.90
2018-07-22T10:14:22.126Z,21.91
2018-07-22T10:15:22.235Z,22.06
2018-07-22T10:16:22.423Z,22.16
2018-07-22T10:17:22.613Z,22.25
2018-07-22T10:18:22.803Z,22.49
2018-07-22T10:19:22.992Z,22.71
2018-07-22T10:20:23.178Z,22.59
2018-07-22T10:21:23.363Z,22.56
2018-07-22T10:22:23.553Z,22.74
2018-07-22T10:23:23.782Z,22.80
2018-07-22T10:24:23.935Z,22.88
2018-07-22T10:25:24.106Z,22.91
2018-07-22T10:26:24.298Z,23.13
2018-07-22T10:27:24.479Z,23.15
2018-07-22T10:28:24.684Z,23.07
2018-07-22T10:29:24.887Z,23.11
2018-07-22T10:30:25.060Z,23.06
2018-07-22T10:31:25.245Z,23.17
2018-07-22T10:32:25.435Z,23.22
2018-07-22T10:33:25.620Z,23.13
2018-07-22T10:34:25.806Z,23.04
2018-07-22T10:35:26.024Z,23.23
2018-07-22T10:36:26.207Z,23.21
2018-07-22T10:37:26.405Z,23.28
2018-07-22T10:38:26.571Z,23.39
2018-07-22T10:39:26.756Z,23.46
2018-07-22T10:40:26.960Z,23.31
2018-07-22T10:41:27.134Z,23.34
2018-07-22T10:42:27.326Z,23.25
2018-07-22T10:43:27.505Z,23.26
2018-07-22T10:44:27.689Z,23.29
2018-07-22T10:45:27.928Z,23.41
2018-07-22T10:46:28.073Z,23.44
2018-07-22T10:47:28.268Z,23.48
2018-07-22T10:48:28.478Z,23.54
2018-07-22T10:49:28.700Z,23.56
2018-07-22T10:50:28.869Z,23.56
2018-07-22T10:51:29.053Z,23.71
2018-07-22T10:52:29.243Z,23.82
2018-07-22T10:53:29.476Z,23.79
2018-07-22T10:54:29.619Z,23.67
2018-07-22T10:55:29.820Z,23.56
2018-07-22T10:56:30.010Z,23.70
2018-07-22T10:57:30.183Z,23.66
2018-07-22T10:58:30.376Z,23.73
2018-07-22T10:59:30.579Z,23.66
2018-07-22T11:00:30.766Z,23.66
2018-07-22T11:01:30.979Z,23.70
2018-07-22T11:02:31.252Z,23.84
2018-07-22T11:03:31.362Z,23.61
2018-07-22T11:04:31.572Z,23.64
2018-07-22T11:05:31.719Z,23.67
2018-07-22T11:06:31.918Z,23.55
2018-07-22T11:07:32.092Z,23.56
2018-07-22T11:08:32.281Z,23.60
2018-07-22T11:09:32.471Z,23.60
2018-07-22T11:10:32.662Z,23.59
2018-07-22T11:11:32.855Z,23.64
2018-07-22T11:12:33.046Z,23.60
2018-07-22T11:13:33.239Z,23.56
2018-07-22T11:14:33.454Z,23.74
2018-07-22T11:15:33.627Z,23.70
2018-07-22T11:16:33.783Z,23.71
2018-07-22T11:17:33.973Z,23.76
2018-07-22T11:18:34.171Z,23.85
2018-07-22T11:19:34.380Z,23.81
2018-07-22T11:20:34.595Z,23.81
2018-07-22T11:21:34.769Z,23.84
2018-07-22T11:22:34.982Z,23.85
2018-07-22T11:23:35.171Z,23.76
2018-07-22T11:24:35.364Z,23.85
2018-07-22T11:25:35.555Z,23.63
2018-07-22T11:26:35.762Z,23.60
2018-07-22T11:27:35.914Z,23.74
2018-07-22T11:28:36.107Z,23.66
2018-07-22T11:29:36.291Z,23.56
2018-07-22T11:30:36.480Z,23.66
2018-07-22T11:31:36.675Z,23.64
2018-07-22T11:32:36.852Z,23.69
2018-07-22T11:33:37.045Z,23.73
2018-07-22T11:34:37.233Z,23.73
2018-07-22T11:35:37.434Z,23.84
2018-07-22T11:36:37.622Z,23.92
2018-07-22T11:37:37.801Z,24.03
2018-07-22T11:38:37.997Z,24.15
2018-07-22T11:39:38.164Z,24.28
2018-07-22T11:40:38.348Z,24.47
2018-07-22T11:41:38.539Z,24.40
2018-07-22T11:42:38.744Z,24.29
2018-07-22T11:43:38.917Z,24.37
2018-07-22T11:44:39.103Z,24.53
2018-07-22T11:45:39.308Z,24.63
2018-07-22T11:46:39.500Z,24.84
2018-07-22T11:47:39.722Z,25.08
2018-07-22T11:48:39.871Z,25.22
2018-07-22T11:49:40.077Z,25.06
2018-07-22T11:50:40.339Z,25.26
2018-07-22T11:51:40.459Z,25.43
2018-07-22T11:52:40.642Z,25.71
2018-07-22T11:53:40.832Z,25.77
2018-07-22T11:54:41.026Z,25.77
2018-07-22T11:55:41.213Z,25.61
2018-07-22T11:56:41.406Z,25.66
2018-07-22T11:57:41.576Z,25.78
2018-07-22T11:58:41.757Z,25.93
2018-07-22T11:59:41.949Z,26.01
2018-07-22T12:00:42.135Z,26.16
2018-07-22T12:01:42.327Z,26.31
2018-07-22T12:02:42.520Z,26.33
2018-07-22T12:03:42.708Z,26.33
2018-07-22T12:04:42.903Z,26.01
2018-07-22T12:05:43.112Z,25.93
2018-07-22T12:06:43.279Z,25.70
2018-07-22T12:07:43.491Z,25.45
2018-07-22T12:08:43.657Z,25.34
2018-07-22T12:09:43.852Z,25.21
2018-07-22T12:10:44.052Z,25.23
2018-07-22T12:11:44.254Z,25.28
2018-07-22T12:12:44.418Z,25.55
2018-07-22T12:13:44.602Z,25.68
2018-07-22T12:14:44.809Z,25.83
2018-07-22T12:15:44.985Z,25.92
2018-07-22T12:16:45.178Z,26.01
2018-07-22T12:17:45.378Z,26.36
2018-07-22T12:18:45.596Z,26.39
2018-07-22T12:19:45.790Z,26.38
2018-07-22T12:20:45.987Z,26.45
2018-07-22T12:21:46.193Z,26.42
2018-07-22T12:22:46.358Z,26.12
2018-07-22T12:23:46.550Z,25.83
2018-07-22T12:24:46.740Z,25.53
2018-07-22T12:25:46.929Z,25.64
2018-07-22T12:26:47.125Z,25.75
2018-07-22T12:27:47.333Z,25.85
2018-07-22T12:28:47.494Z,26.04
2018-07-22T12:29:47.679Z,26.08
2018-07-22T12:30:47.880Z,26.04
2018-07-22T12:31:48.075Z,26.05
2018-07-22T12:32:48.282Z,26.07
2018-07-22T12:33:48.452Z,26.24
2018-07-22T12:34:48.650Z,26.36
2018-07-22T12:35:48.837Z,26.05
2018-07-22T12:36:49.039Z,25.96
2018-07-22T12:37:49.232Z,25.92
2018-07-22T12:38:49.427Z,25.89
2018-07-22T12:39:49.614Z,25.86
2018-07-22T12:40:49.808Z,25.73
2018-07-22T12:41:50.014Z,25.77
2018-07-22T12:42:50.233Z,25.64
2018-07-22T12:43:50.425Z,25.49
2018-07-22T12:44:50.618Z,25.53
2018-07-22T12:45:50.810Z,25.43
2018-07-22T12:46:51.003Z,25.31
2018-07-22T12:47:51.194Z,25.15
2018-07-22T12:48:51.388Z,25.18
2018-07-22T12:49:51.597Z,25.38
2018-07-22T12:50:51.783Z,25.52
2018-07-22T12:51:51.975Z,25.55
2018-07-22T12:52:52.152Z,25.63
2018-07-22T12:53:52.422Z,25.51
2018-07-22T12:54:52.525Z,25.49
2018-07-22T12:55:52.730Z,25.56
2018-07-22T12:56:52.939Z,25.63
2018-07-22T12:57:53.150Z,25.40
2018-07-22T12:58:53.345Z,25.33
2018-07-22T12:59:53.535Z,25.28
2018-07-22T13:00:53.727Z,25.33
2018-07-22T13:01:53.916Z,25.33
2018-07-22T13:02:54.136Z,25.19
2018-07-22T13:03:54.304Z,25.26